sensor_id;sensor_type;location;lat;lon;timestamp;P1;durP1;ratioP1;P2;durP2;ratioP2
72674;SDS011;60752;53.962;9.614;2023-02-15T00:02:13;33.27;;;12.20;;
72674;SDS011;60752;53.962;9.614;2023-02-15T00:07:15;27.23;;;11.40;;
72674;SDS011;60752;53.962;9.614;2023-02-15T00:12:18;26.75;;;10.80;;
72674;SDS011;60752;53.962;9.614;2023-02-15T00:17:18;25.40;;;10.77;;
72674;SDS011;60752;53.962;9.614;2023-02-15T00:22:20;26.43;;;11.10;;
72674;SDS011;60752;53.962;9.614;2023-02-15T00:27:20;24.45;;;9.55;;
72674;SDS011;60752;53.962;9.614;2023-02-15T00:32:21;32.47;;;10.73;;
72674;SDS011;60752;53.962;9.614;2023-02-15T00:37:23;25.93;;;9.93;;
72674;SDS011;60752;53.962;9.614;2023-02-15T00:42:23;26.03;;;9.70;;
72674;SDS011;60752;53.962;9.614;2023-02-15T00:47:24;26.77;;;10.73;;
72674;SDS011;60752;53.962;9.614;2023-02-15T00:52:26;32.27;;;13.13;;
72674;SDS011;60752;53.962;9.614;2023-02-15T00:57:26;33.83;;;12.80;;
72674;SDS011;60752;53.962;9.614;2023-02-15T01:02:27;27.10;;;10.23;;
72674;SDS011;60752;53.962;9.614;2023-02-15T01:07:28;23.77;;;10.07;;
72674;SDS011;60752;53.962;9.614;2023-02-15T01:12:29;19.47;;;9.03;;
72674;SDS011;60752;53.962;9.614;2023-02-15T01:17:30;20.30;;;9.07;;
72674;SDS011;60752;53.962;9.614;2023-02-15T01:27:34;23.95;;;9.45;;
72674;SDS011;60752;53.962;9.614;2023-02-15T01:32:35;18.83;;;8.67;;
72674;SDS011;60752;53.962;9.614;2023-02-15T01:37:37;27.03;;;8.30;;
72674;SDS011;60752;53.962;9.614;2023-02-15T01:42:37;20.23;;;7.93;;
72674;SDS011;60752;53.962;9.614;2023-02-15T01:47:38;30.37;;;8.73;;
72674;SDS011;60752;53.962;9.614;2023-02-15T01:52:44;18.77;;;8.55;;
72674;SDS011;60752;53.962;9.614;2023-02-15T01:57:49;23.27;;;8.77;;
72674;SDS011;60752;53.962;9.614;2023-02-15T02:02:50;26.85;;;11.10;;
72674;SDS011;60752;53.962;9.614;2023-02-15T02:07:56;20.50;;;10.48;;
72674;SDS011;60752;53.962;9.614;2023-02-15T02:12:58;49.37;;;10.50;;
72674;SDS011;60752;53.962;9.614;2023-02-15T02:18:03;44.13;;;10.90;;
72674;SDS011;60752;53.962;9.614;2023-02-15T02:23:21;33.15;;;9.63;;
72674;SDS011;60752;53.962;9.614;2023-02-15T02:28:29;36.07;;;10.13;;
72674;SDS011;60752;53.962;9.614;2023-02-15T02:33:49;35.58;;;8.82;;
72674;SDS011;60752;53.962;9.614;2023-02-15T02:39:00;20.98;;;8.70;;
72674;SDS011;60752;53.962;9.614;2023-02-15T02:44:12;20.30;;;9.83;;
72674;SDS011;60752;53.962;9.614;2023-02-15T02:49:17;26.47;;;10.17;;
72674;SDS011;60752;53.962;9.614;2023-02-15T02:54:29;27.33;;;9.90;;
72674;SDS011;60752;53.962;9.614;2023-02-15T02:59:32;34.65;;;9.70;;
72674;SDS011;60752;53.962;9.614;2023-02-15T03:04:37;21.77;;;10.13;;
72674;SDS011;60752;53.962;9.614;2023-02-15T03:09:41;40.10;;;9.98;;
72674;SDS011;60752;53.962;9.614;2023-02-15T03:14:46;26.02;;;9.45;;
72674;SDS011;60752;53.962;9.614;2023-02-15T03:19:52;54.10;;;10.30;;
72674;SDS011;60752;53.962;9.614;2023-02-15T03:24:58;30.77;;;9.23;;
72674;SDS011;60752;53.962;9.614;2023-02-15T03:30:02;20.95;;;10.00;;
72674;SDS011;60752;53.962;9.614;2023-02-15T03:35:07;20.60;;;9.07;;
72674;SDS011;60752;53.962;9.614;2023-02-15T03:40:09;28.47;;;9.60;;
72674;SDS011;60752;53.962;9.614;2023-02-15T03:45:11;38.88;;;9.75;;
72674;SDS011;60752;53.962;9.614;2023-02-15T03:50:17;32.72;;;9.82;;
72674;SDS011;60752;53.962;9.614;2023-02-15T03:55:21;21.77;;;9.40;;
72674;SDS011;60752;53.962;9.614;2023-02-15T04:00:22;18.58;;;8.80;;
72674;SDS011;60752;53.962;9.614;2023-02-15T04:05:25;25.23;;;9.60;;
72674;SDS011;60752;53.962;9.614;2023-02-15T04:10:26;20.43;;;8.87;;
72674;SDS011;60752;53.962;9.614;2023-02-15T04:15:26;28.00;;;9.17;;
72674;SDS011;60752;53.962;9.614;2023-02-15T04:20:28;19.13;;;8.97;;
72674;SDS011;60752;53.962;9.614;2023-02-15T04:25:28;32.13;;;9.13;;
72674;SDS011;60752;53.962;9.614;2023-02-15T04:30:29;29.10;;;9.27;;
72674;SDS011;60752;53.962;9.614;2023-02-15T04:35:30;20.17;;;7.63;;
72674;SDS011;60752;53.962;9.614;2023-02-15T04:40:31;18.77;;;7.57;;
72674;SDS011;60752;53.962;9.614;2023-02-15T04:45:31;20.10;;;8.23;;
72674;SDS011;60752;53.962;9.614;2023-02-15T04:50:33;23.53;;;7.90;;
72674;SDS011;60752;53.962;9.614;2023-02-15T04:55:33;53.17;;;9.57;;
72674;SDS011;60752;53.962;9.614;2023-02-15T05:00:34;56.63;;;8.97;;
72674;SDS011;60752;53.962;9.614;2023-02-15T05:05:35;24.77;;;8.07;;
72674;SDS011;60752;53.962;9.614;2023-02-15T05:10:36;21.30;;;8.53;;
72674;SDS011;60752;53.962;9.614;2023-02-15T05:15:36;24.20;;;8.27;;
72674;SDS011;60752;53.962;9.614;2023-02-15T05:20:38;20.23;;;8.33;;
72674;SDS011;60752;53.962;9.614;2023-02-15T05:25:38;16.48;;;7.15;;
72674;SDS011;60752;53.962;9.614;2023-02-15T05:30:39;21.67;;;8.40;;
72674;SDS011;60752;53.962;9.614;2023-02-15T05:35:41;21.87;;;7.87;;
72674;SDS011;60752;53.962;9.614;2023-02-15T05:40:41;19.67;;;7.90;;
72674;SDS011;60752;53.962;9.614;2023-02-15T05:45:44;16.90;;;7.80;;
72674;SDS011;60752;53.962;9.614;2023-02-15T05:50:46;16.25;;;7.30;;
72674;SDS011;60752;53.962;9.614;2023-02-15T05:55:56;22.57;;;7.90;;
72674;SDS011;60752;53.962;9.614;2023-02-15T06:00:56;30.37;;;8.43;;
72674;SDS011;60752;53.962;9.614;2023-02-15T06:05:58;36.03;;;8.40;;
72674;SDS011;60752;53.962;9.614;2023-02-15T06:10:58;17.47;;;7.30;;
72674;SDS011;60752;53.962;9.614;2023-02-15T06:21:45;30.53;;;8.30;;
72674;SDS011;60752;53.962;9.614;2023-02-15T06:26:45;24.42;;;7.25;;
72674;SDS011;60752;53.962;9.614;2023-02-15T06:31:46;20.87;;;7.47;;
72674;SDS011;60752;53.962;9.614;2023-02-15T06:36:47;20.90;;;7.33;;
72674;SDS011;60752;53.962;9.614;2023-02-15T06:41:48;27.60;;;8.00;;
72674;SDS011;60752;53.962;9.614;2023-02-15T06:46:48;14.60;;;6.40;;
72674;SDS011;60752;53.962;9.614;2023-02-15T06:51:50;19.90;;;7.03;;
72674;SDS011;60752;53.962;9.614;2023-02-15T06:56:50;19.13;;;6.17;;
72674;SDS011;60752;53.962;9.614;2023-02-15T07:01:51;15.47;;;6.53;;
72674;SDS011;60752;53.962;9.614;2023-02-15T07:06:52;42.10;;;7.43;;
72674;SDS011;60752;53.962;9.614;2023-02-15T07:11:53;16.07;;;6.73;;
72674;SDS011;60752;53.962;9.614;2023-02-15T07:16:53;34.53;;;7.57;;
72674;SDS011;60752;53.962;9.614;2023-02-15T07:21:55;23.37;;;6.87;;
72674;SDS011;60752;53.962;9.614;2023-02-15T07:26:55;17.00;;;7.03;;
72674;SDS011;60752;53.962;9.614;2023-02-15T07:31:56;29.00;;;7.90;;
72674;SDS011;60752;53.962;9.614;2023-02-15T07:36:57;17.37;;;7.43;;
72674;SDS011;60752;53.962;9.614;2023-02-15T07:41:59;18.42;;;7.50;;
72674;SDS011;60752;53.962;9.614;2023-02-15T07:46:59;19.63;;;7.40;;
72674;SDS011;60752;53.962;9.614;2023-02-15T07:52:01;31.97;;;7.97;;
72674;SDS011;60752;53.962;9.614;2023-02-15T07:57:01;18.93;;;7.77;;
72674;SDS011;60752;53.962;9.614;2023-02-15T08:02:02;20.70;;;8.17;;
72674;SDS011;60752;53.962;9.614;2023-02-15T08:07:04;20.13;;;7.87;;
72674;SDS011;60752;53.962;9.614;2023-02-15T08:12:05;17.53;;;7.73;;
72674;SDS011;60752;53.962;9.614;2023-02-15T08:17:06;17.73;;;8.02;;
72674;SDS011;60752;53.962;9.614;2023-02-15T08:22:10;36.93;;;8.70;;
72674;SDS011;60752;53.962;9.614;2023-02-15T08:27:12;18.23;;;8.05;;
72674;SDS011;60752;53.962;9.614;2023-02-15T08:32:12;31.70;;;8.50;;
72674;SDS011;60752;53.962;9.614;2023-02-15T08:37:14;25.17;;;8.80;;
72674;SDS011;60752;53.962;9.614;2023-02-15T08:42:14;21.73;;;9.13;;
72674;SDS011;60752;53.962;9.614;2023-02-15T08:47:15;21.27;;;8.43;;
72674;SDS011;60752;53.962;9.614;2023-02-15T08:52:17;22.37;;;8.93;;
72674;SDS011;60752;53.962;9.614;2023-02-15T08:57:17;22.37;;;9.17;;
72674;SDS011;60752;53.962;9.614;2023-02-15T09:02:17;25.43;;;9.07;;
72674;SDS011;60752;53.962;9.614;2023-02-15T09:07:19;20.43;;;8.43;;
72674;SDS011;60752;53.962;9.614;2023-02-15T09:12:20;20.23;;;7.90;;
72674;SDS011;60752;53.962;9.614;2023-02-15T09:17:20;19.40;;;8.70;;
72674;SDS011;60752;53.962;9.614;2023-02-15T09:22:22;21.27;;;9.67;;
72674;SDS011;60752;53.962;9.614;2023-02-15T09:27:22;21.42;;;8.77;;
72674;SDS011;60752;53.962;9.614;2023-02-15T09:32:23;18.17;;;7.93;;
72674;SDS011;60752;53.962;9.614;2023-02-15T09:37:24;24.73;;;9.67;;
72674;SDS011;60752;53.962;9.614;2023-02-15T09:48:08;22.70;;;9.33;;
72674;SDS011;60752;53.962;9.614;2023-02-15T09:53:36;23.73;;;8.87;;
72674;SDS011;60752;53.962;9.614;2023-02-15T09:58:46;25.42;;;10.68;;
72674;SDS011;60752;53.962;9.614;2023-02-15T10:04:07;20.20;;;9.50;;
72674;SDS011;60752;53.962;9.614;2023-02-15T10:09:22;22.83;;;9.97;;
72674;SDS011;60752;53.962;9.614;2023-02-15T10:14:45;21.65;;;9.90;;
72674;SDS011;60752;53.962;9.614;2023-02-15T10:20:00;26.23;;;10.93;;
72674;SDS011;60752;53.962;9.614;2023-02-15T10:25:14;24.53;;;10.27;;
72674;SDS011;60752;53.962;9.614;2023-02-15T10:30:25;38.58;;;11.45;;
72674;SDS011;60752;53.962;9.614;2023-02-15T10:35:36;23.27;;;10.70;;
72674;SDS011;60752;53.962;9.614;2023-02-15T10:40:49;75.40;;;13.87;;
72674;SDS011;60752;53.962;9.614;2023-02-15T10:45:56;26.83;;;12.13;;
72674;SDS011;60752;53.962;9.614;2023-02-15T10:51:08;31.38;;;12.15;;
72674;SDS011;60752;53.962;9.614;2023-02-15T10:56:19;37.13;;;13.90;;
72674;SDS011;60752;53.962;9.614;2023-02-15T11:01:25;29.33;;;11.13;;
72674;SDS011;60752;53.962;9.614;2023-02-15T11:06:30;31.63;;;12.50;;
72674;SDS011;60752;53.962;9.614;2023-02-15T11:11:36;27.70;;;12.70;;
72674;SDS011;60752;53.962;9.614;2023-02-15T11:16:39;34.77;;;12.17;;
72674;SDS011;60752;53.962;9.614;2023-02-15T11:21:43;33.42;;;14.85;;
72674;SDS011;60752;53.962;9.614;2023-02-15T11:26:48;29.55;;;12.18;;
72674;SDS011;60752;53.962;9.614;2023-02-15T11:31:54;31.57;;;13.03;;
72674;SDS011;60752;53.962;9.614;2023-02-15T11:36:58;32.27;;;13.17;;
72674;SDS011;60752;53.962;9.614;2023-02-15T11:42:06;33.85;;;13.68;;
72674;SDS011;60752;53.962;9.614;2023-02-15T11:47:12;32.15;;;13.90;;
72674;SDS011;60752;53.962;9.614;2023-02-15T11:52:14;50.77;;;15.00;;
72674;SDS011;60752;53.962;9.614;2023-02-15T11:57:22;31.67;;;13.40;;
72674;SDS011;60752;53.962;9.614;2023-02-15T12:02:26;33.33;;;13.60;;
72674;SDS011;60752;53.962;9.614;2023-02-15T12:07:27;40.03;;;14.73;;
72674;SDS011;60752;53.962;9.614;2023-02-15T12:12:32;38.37;;;15.20;;
72674;SDS011;60752;53.962;9.614;2023-02-15T12:17:35;34.78;;;13.80;;
72674;SDS011;60752;53.962;9.614;2023-02-15T12:22:39;34.28;;;14.32;;
72674;SDS011;60752;53.962;9.614;2023-02-15T12:27:47;36.80;;;14.53;;
72674;SDS011;60752;53.962;9.614;2023-02-15T12:32:50;64.67;;;15.70;;
72674;SDS011;60752;53.962;9.614;2023-02-15T12:37:52;38.45;;;14.80;;
72674;SDS011;60752;53.962;9.614;2023-02-15T12:42:55;32.58;;;14.93;;
72674;SDS011;60752;53.962;9.614;2023-02-15T12:48:07;36.57;;;14.27;;
72674;SDS011;60752;53.962;9.614;2023-02-15T12:53:13;49.70;;;15.93;;
72674;SDS011;60752;53.962;9.614;2023-02-15T12:58:17;32.00;;;14.15;;
72674;SDS011;60752;53.962;9.614;2023-02-15T13:03:20;35.17;;;15.33;;
72674;SDS011;60752;53.962;9.614;2023-02-15T13:08:22;41.67;;;16.13;;
72674;SDS011;60752;53.962;9.614;2023-02-15T13:13:30;40.70;;;16.67;;
72674;SDS011;60752;53.962;9.614;2023-02-15T13:18:36;37.00;;;16.87;;
72674;SDS011;60752;53.962;9.614;2023-02-15T13:23:39;30.60;;;14.40;;
72674;SDS011;60752;53.962;9.614;2023-02-15T13:28:46;31.58;;;14.30;;
72674;SDS011;60752;53.962;9.614;2023-02-15T13:33:49;33.55;;;14.77;;
72674;SDS011;60752;53.962;9.614;2023-02-15T13:38:56;31.73;;;14.77;;
72674;SDS011;60752;53.962;9.614;2023-02-15T13:44:07;37.92;;;16.77;;
72674;SDS011;60752;53.962;9.614;2023-02-15T13:49:18;61.35;;;22.02;;
72674;SDS011;60752;53.962;9.614;2023-02-15T13:54:35;52.97;;;18.90;;
72674;SDS011;60752;53.962;9.614;2023-02-15T13:59:48;40.83;;;15.93;;
72674;SDS011;60752;53.962;9.614;2023-02-15T14:10:43;37.37;;;16.53;;
72674;SDS011;60752;53.962;9.614;2023-02-15T14:15:54;39.37;;;16.10;;
72674;SDS011;60752;53.962;9.614;2023-02-15T14:21:04;58.65;;;18.23;;
72674;SDS011;60752;53.962;9.614;2023-02-15T14:26:10;39.05;;;16.48;;
72674;SDS011;60752;53.962;9.614;2023-02-15T14:31:19;41.97;;;18.63;;
72674;SDS011;60752;53.962;9.614;2023-02-15T14:36:28;53.00;;;19.95;;
72674;SDS011;60752;53.962;9.614;2023-02-15T14:41:31;41.80;;;19.23;;
72674;SDS011;60752;53.962;9.614;2023-02-15T14:46:46;47.70;;;19.10;;
72674;SDS011;60752;53.962;9.614;2023-02-15T14:51:57;41.65;;;19.00;;
72674;SDS011;60752;53.962;9.614;2023-02-15T15:02:26;43.07;;;17.47;;
72674;SDS011;60752;53.962;9.614;2023-02-15T15:07:35;39.33;;;17.67;;
72674;SDS011;60752;53.962;9.614;2023-02-15T15:12:39;40.08;;;17.75;;
72674;SDS011;60752;53.962;9.614;2023-02-15T15:17:53;45.17;;;18.95;;
72674;SDS011;60752;53.962;9.614;2023-02-15T15:28:53;41.78;;;17.60;;
72674;SDS011;60752;53.962;9.614;2023-02-15T15:45:43;58.38;;;19.23;;
72674;SDS011;60752;53.962;9.614;2023-02-15T15:50:51;44.65;;;18.55;;
72674;SDS011;60752;53.962;9.614;2023-02-15T15:55:54;42.53;;;20.03;;
72674;SDS011;60752;53.962;9.614;2023-02-15T16:01:01;66.23;;;22.43;;
72674;SDS011;60752;53.962;9.614;2023-02-15T16:06:10;68.30;;;28.80;;
72674;SDS011;60752;53.962;9.614;2023-02-15T16:11:13;89.43;;;23.73;;
72674;SDS011;60752;53.962;9.614;2023-02-15T16:16:21;88.33;;;25.73;;
72674;SDS011;60752;53.962;9.614;2023-02-15T16:21:26;98.20;;;26.88;;
72674;SDS011;60752;53.962;9.614;2023-02-15T16:26:35;75.32;;;27.02;;
72674;SDS011;60752;53.962;9.614;2023-02-15T16:32:00;110.80;;;28.23;;
72674;SDS011;60752;53.962;9.614;2023-02-15T16:37:14;116.07;;;25.95;;
72674;SDS011;60752;53.962;9.614;2023-02-15T16:42:16;65.03;;;25.17;;
72674;SDS011;60752;53.962;9.614;2023-02-15T16:47:19;70.50;;;27.20;;
72674;SDS011;60752;53.962;9.614;2023-02-15T16:52:23;71.20;;;25.90;;
72674;SDS011;60752;53.962;9.614;2023-02-15T16:57:26;77.78;;;26.40;;
72674;SDS011;60752;53.962;9.614;2023-02-15T17:02:32;60.25;;;25.65;;
72674;SDS011;60752;53.962;9.614;2023-02-15T17:07:33;69.83;;;26.60;;
72674;SDS011;60752;53.962;9.614;2023-02-15T17:12:43;73.72;;;25.98;;
72674;SDS011;60752;53.962;9.614;2023-02-15T17:17:46;60.75;;;24.70;;
72674;SDS011;60752;53.962;9.614;2023-02-15T17:22:46;61.67;;;24.43;;
72674;SDS011;60752;53.962;9.614;2023-02-15T17:27:50;121.03;;;26.73;;
72674;SDS011;60752;53.962;9.614;2023-02-15T17:32:54;66.93;;;25.37;;
72674;SDS011;60752;53.962;9.614;2023-02-15T17:38:01;128.70;;;27.48;;
72674;SDS011;60752;53.962;9.614;2023-02-15T17:43:03;104.40;;;26.27;;
72674;SDS011;60752;53.962;9.614;2023-02-15T17:48:05;71.60;;;23.60;;
72674;SDS011;60752;53.962;9.614;2023-02-15T17:53:07;58.83;;;21.07;;
72674;SDS011;60752;53.962;9.614;2023-02-15T17:58:09;64.88;;;24.08;;
72674;SDS011;60752;53.962;9.614;2023-02-15T18:03:12;59.28;;;23.40;;
72674;SDS011;60752;53.962;9.614;2023-02-15T18:08:13;114.17;;;26.53;;
72674;SDS011;60752;53.962;9.614;2023-02-15T18:13:15;87.22;;;24.52;;
72674;SDS011;60752;53.962;9.614;2023-02-15T18:18:16;59.50;;;22.57;;
72674;SDS011;60752;53.962;9.614;2023-02-15T18:23:17;57.22;;;25.05;;
72674;SDS011;60752;53.962;9.614;2023-02-15T18:28:17;67.73;;;23.77;;
72674;SDS011;60752;53.962;9.614;2023-02-15T18:33:24;104.13;;;29.00;;
72674;SDS011;60752;53.962;9.614;2023-02-15T18:38:32;94.57;;;25.73;;
72674;SDS011;60752;53.962;9.614;2023-02-15T18:43:33;78.83;;;25.07;;
72674;SDS011;60752;53.962;9.614;2023-02-15T18:48:35;71.90;;;25.13;;
72674;SDS011;60752;53.962;9.614;2023-02-15T18:53:35;57.10;;;22.80;;
72674;SDS011;60752;53.962;9.614;2023-02-15T18:58:36;57.27;;;24.60;;
72674;SDS011;60752;53.962;9.614;2023-02-15T19:03:37;72.97;;;22.93;;
72674;SDS011;60752;53.962;9.614;2023-02-15T19:08:38;58.97;;;24.27;;
72674;SDS011;60752;53.962;9.614;2023-02-15T19:13:38;69.97;;;24.77;;
72674;SDS011;60752;53.962;9.614;2023-02-15T19:18:40;60.83;;;23.00;;
72674;SDS011;60752;53.962;9.614;2023-02-15T19:23:41;70.30;;;23.42;;
72674;SDS011;60752;53.962;9.614;2023-02-15T19:28:41;83.47;;;21.23;;
72674;SDS011;60752;53.962;9.614;2023-02-15T19:33:43;63.27;;;21.03;;
72674;SDS011;60752;53.962;9.614;2023-02-15T19:38:44;95.35;;;21.20;;
72674;SDS011;60752;53.962;9.614;2023-02-15T19:43:47;48.37;;;17.93;;
72674;SDS011;60752;53.962;9.614;2023-02-15T19:48:52;46.53;;;19.67;;
72674;SDS011;60752;53.962;9.614;2023-02-15T19:53:52;54.60;;;19.30;;
72674;SDS011;60752;53.962;9.614;2023-02-15T19:58:53;47.77;;;19.07;;
72674;SDS011;60752;53.962;9.614;2023-02-15T20:03:55;49.13;;;16.07;;
72674;SDS011;60752;53.962;9.614;2023-02-15T20:08:55;35.25;;;15.13;;
72674;SDS011;60752;53.962;9.614;2023-02-15T20:13:56;47.30;;;18.13;;
72674;SDS011;60752;53.962;9.614;2023-02-15T20:18:58;43.93;;;18.33;;
72674;SDS011;60752;53.962;9.614;2023-02-15T20:23:58;41.08;;;18.05;;
72674;SDS011;60752;53.962;9.614;2023-02-15T20:28:59;39.88;;;16.60;;
72674;SDS011;60752;53.962;9.614;2023-02-15T20:34:02;46.87;;;17.40;;
72674;SDS011;60752;53.962;9.614;2023-02-15T20:39:03;35.80;;;15.40;;
72674;SDS011;60752;53.962;9.614;2023-02-15T20:44:20;35.78;;;14.95;;
72674;SDS011;60752;53.962;9.614;2023-02-15T20:49:24;35.23;;;15.53;;
72674;SDS011;60752;53.962;9.614;2023-02-15T20:54:26;34.40;;;15.20;;
72674;SDS011;60752;53.962;9.614;2023-02-15T20:59:29;34.97;;;15.25;;
72674;SDS011;60752;53.962;9.614;2023-02-15T21:04:32;28.83;;;13.88;;
72674;SDS011;60752;53.962;9.614;2023-02-15T21:09:33;27.10;;;12.63;;
72674;SDS011;60752;53.962;9.614;2023-02-15T21:14:33;28.20;;;12.50;;
72674;SDS011;60752;53.962;9.614;2023-02-15T21:19:35;29.73;;;12.83;;
72674;SDS011;60752;53.962;9.614;2023-02-15T21:24:36;27.27;;;12.43;;
72674;SDS011;60752;53.962;9.614;2023-02-15T21:29:36;41.20;;;18.80;;
72674;SDS011;60752;53.962;9.614;2023-02-15T21:34:38;40.40;;;18.03;;
72674;SDS011;60752;53.962;9.614;2023-02-15T21:39:38;40.13;;;18.48;;
72674;SDS011;60752;53.962;9.614;2023-02-15T21:44:39;50.20;;;18.90;;
72674;SDS011;60752;53.962;9.614;2023-02-15T21:49:41;39.40;;;17.43;;
72674;SDS011;60752;53.962;9.614;2023-02-15T21:54:41;40.40;;;17.67;;
72674;SDS011;60752;53.962;9.614;2023-02-15T21:59:42;30.67;;;13.88;;
72674;SDS011;60752;53.962;9.614;2023-02-15T22:04:44;39.17;;;15.27;;
72674;SDS011;60752;53.962;9.614;2023-02-15T22:09:44;32.60;;;14.60;;
72674;SDS011;60752;53.962;9.614;2023-02-15T22:14:46;34.63;;;16.40;;
72674;SDS011;60752;53.962;9.614;2023-02-15T22:19:50;29.53;;;13.40;;
72674;SDS011;60752;53.962;9.614;2023-02-15T22:24:51;36.83;;;15.32;;
72674;SDS011;60752;53.962;9.614;2023-02-15T22:29:52;30.20;;;13.47;;
72674;SDS011;60752;53.962;9.614;2023-02-15T22:34:55;29.73;;;13.93;;
72674;SDS011;60752;53.962;9.614;2023-02-15T22:39:55;24.50;;;12.17;;
72674;SDS011;60752;53.962;9.614;2023-02-15T22:44:56;22.83;;;11.17;;
72674;SDS011;60752;53.962;9.614;2023-02-15T22:49:58;20.52;;;10.60;;
72674;SDS011;60752;53.962;9.614;2023-02-15T22:54:59;24.17;;;10.93;;
72674;SDS011;60752;53.962;9.614;2023-02-15T22:59:59;21.77;;;11.90;;
72674;SDS011;60752;53.962;9.614;2023-02-15T23:05:01;23.40;;;11.20;;
72674;SDS011;60752;53.962;9.614;2023-02-15T23:10:01;23.63;;;11.27;;
72674;SDS011;60752;53.962;9.614;2023-02-15T23:15:02;22.90;;;12.33;;
72674;SDS011;60752;53.962;9.614;2023-02-15T23:20:04;22.80;;;10.83;;
72674;SDS011;60752;53.962;9.614;2023-02-15T23:25:07;23.15;;;11.55;;
72674;SDS011;60752;53.962;9.614;2023-02-15T23:30:11;18.97;;;10.87;;
72674;SDS011;60752;53.962;9.614;2023-02-15T23:35:14;26.73;;;11.57;;
72674;SDS011;60752;53.962;9.614;2023-02-15T23:40:17;22.63;;;11.18;;
72674;SDS011;60752;53.962;9.614;2023-02-15T23:45:20;26.77;;;11.88;;
72674;SDS011;60752;53.962;9.614;2023-02-15T23:50:23;30.63;;;12.23;;
72674;SDS011;60752;53.962;9.614;2023-02-15T23:55:27;24.55;;;11.85;;
